Time;durP1;ratioP1;P1;durP2;ratioP2;P2;SDS_P1;SDS_P2;PMS_P1;PMS_P2;Temp;Humidity;BMP_temperature;BMP_pressure;BME280_temperature;BME280_humidity;BME280_pressure;Samples;Min_cycle;Max_cycle;Signal;HPM_P1;HPM_P2
2021/12/10 00:00:35;;;;;;;14.40;6.90;;;0.80;99.90;;;;;;5073880;28;20044;-61
2021/12/10 00:03:06;;;;;;;14.85;7.55;;;0.80;99.90;;;;;;5074273;28;20115;-61
2021/12/10 00:05:39;;;;;;;12.73;5.55;;;0.80;99.90;;;;;;5073489;28;20139;-60
2021/12/10 00:08:07;;;;;;;13.23;6.75;;;0.70;99.90;;;;;;5073969;28;20094;-60
2021/12/10 00:10:39;;;;;;;22.60;10.02;;;0.60;99.90;;;;;;5079689;28;20074;-61
2021/12/10 00:13:07;;;;;;;30.10;12.15;;;0.70;99.90;;;;;;5092953;28;20086;-61
2021/12/10 00:15:36;;;;;;;24.17;11.30;;;0.70;99.90;;;;;;5093424;28;20040;-61
2021/12/10 00:18:05;;;;;;;19.75;8.27;;;0.70;99.90;;;;;;5093820;28;20786;-60
2021/12/10 00:20:35;;;;;;;15.45;7.45;;;0.70;99.90;;;;;;5094069;28;20403;-60
2021/12/10 00:23:12;;;;;;;20.95;9.50;;;0.70;99.90;;;;;;5093918;28;20047;-60
2021/12/10 00:25:47;;;;;;;22.27;9.95;;;0.70;99.90;;;;;;5093180;28;20506;-61
2021/12/10 00:28:30;;;;;;;19.25;8.73;;;0.80;99.90;;;;;;5093953;28;20097;-60
2021/12/10 00:31:31;;;;;;;18.20;7.60;;;0.80;99.90;;;;;;5093913;28;20087;-60
2021/12/10 00:34:40;;;;;;;18.70;7.53;;;0.80;99.90;;;;;;5089681;28;20416;-61
2021/12/10 00:37:10;;;;;;;27.20;9.43;;;0.80;99.90;;;;;;5093178;28;20036;-60
2021/12/10 00:39:45;;;;;;;22.13;9.32;;;0.80;99.90;;;;;;5093590;28;20036;-61
2021/12/10 00:42:16;;;;;;;16.63;7.55;;;0.80;99.90;;;;;;5093521;28;20040;-60
2021/12/10 00:44:43;;;;;;;8.38;3.85;;;0.70;99.90;;;;;;5092130;28;20048;-60
2021/12/10 00:47:10;;;;;;;9.20;2.15;;;0.70;99.90;;;;;;5092897;28;20044;-60
2021/12/10 00:49:37;;;;;;;;;;;0.50;99.90;;;;;;5093977;28;20093;-60
2021/12/10 00:52:05;;;;;;;3.25;1.40;;;0.50;99.90;;;;;;5092604;28;19956;-60
2021/12/10 00:54:33;;;;;;;4.22;1.80;;;0.30;99.90;;;;;;5092730;28;20110;-61
2021/12/10 00:57:01;;;;;;;4.95;1.85;;;0.30;99.90;;;;;;5092790;28;20039;-61
2021/12/10 00:59:28;;;;;;;4.35;2.13;;;0.30;99.90;;;;;;5093514;28;20445;-61
2021/12/10 01:01:55;;;;;;;6.65;2.90;;;0.30;99.90;;;;;;5093121;28;20036;-61
2021/12/10 01:04:33;;;;;;;8.32;4.05;;;0.30;99.90;;;;;;5093255;28;20124;-60
2021/12/10 01:07:05;;;;;;;10.10;4.10;;;0.30;99.90;;;;;;5092715;28;20040;-60
2021/12/10 01:09:35;;;;;;;10.98;3.95;;;0.30;99.90;;;;;;5092946;28;20048;-61
2021/12/10 01:12:10;;;;;;;8.32;4.03;;;0.30;99.90;;;;;;5092842;28;20077;-60
2021/12/10 01:26:07;;;;;;;9.35;3.50;;;0.10;99.90;;;;;;5092350;28;20135;-60
2021/12/10 01:28:40;;;;;;;11.25;4.70;;;0.00;99.90;;;;;;5092629;28;20555;-60
2021/12/10 01:31:08;;;;;;;12.43;5.03;;;0.00;99.90;;;;;;5092786;28;20384;-60
2021/12/10 01:33:35;;;;;;;9.45;3.75;;;0.00;99.90;;;;;;5092672;28;20040;-60
2021/12/10 01:36:07;;;;;;;13.13;5.20;;;-0.10;99.90;;;;;;5091934;28;20419;-60
2021/12/10 01:38:36;;;;;;;9.80;4.65;;;0.00;99.90;;;;;;5092442;28;20044;-60
2021/12/10 01:41:08;;;;;;;5.68;2.90;;;0.10;99.90;;;;;;5092567;28;20101;-60
2021/12/10 01:43:38;;;;;;;7.32;3.08;;;0.10;99.90;;;;;;5092309;28;20040;-60
2021/12/10 01:46:12;;;;;;;7.05;2.60;;;0.00;99.90;;;;;;5091800;28;20048;-60
2021/12/10 01:48:45;;;;;;;7.35;2.03;;;-0.10;99.90;;;;;;5092403;28;20052;-60
2021/12/10 01:51:19;;;;;;;12.15;3.70;;;-0.20;99.90;;;;;;5092500;28;20117;-60
2021/12/10 01:53:49;;;;;;;3.70;1.70;;;-0.20;99.90;;;;;;5092059;28;20040;-60
2021/12/10 01:56:21;;;;;;;4.45;1.95;;;-0.30;99.90;;;;;;5091842;28;20484;-60
2021/12/10 01:58:49;;;;;;;3.20;1.48;;;-0.30;99.90;;;;;;5092193;28;20048;-60
2021/12/10 02:01:22;;;;;;;5.20;1.58;;;-0.40;99.90;;;;;;5092508;28;20115;-60
2021/12/10 02:03:51;;;;;;;3.80;1.40;;;-0.50;99.90;;;;;;5092235;28;20673;-60
2021/12/10 02:06:17;;;;;;;3.70;1.52;;;-0.50;99.90;;;;;;5091508;28;20089;-60
2021/12/10 02:08:44;;;;;;;2.88;1.33;;;-0.50;99.90;;;;;;5091936;28;20141;-60
2021/12/10 02:11:13;;;;;;;3.85;1.30;;;-0.50;99.90;;;;;;5092015;28;20052;-60
2021/12/10 02:13:40;;;;;;;6.28;1.38;;;-0.50;99.90;;;;;;5091986;28;20048;-60
2021/12/10 02:16:08;;;;;;;5.32;1.83;;;-0.50;99.90;;;;;;5091530;28;20040;-60
2021/12/10 02:18:35;;;;;;;5.43;2.00;;;-0.60;99.90;;;;;;5091961;28;20086;-60
2021/12/10 02:21:03;;;;;;;3.63;1.77;;;-0.60;99.90;;;;;;5091564;28;20044;-60
2021/12/10 02:23:36;;;;;;;7.72;2.90;;;-0.60;99.90;;;;;;5092143;28;20534;-60
2021/12/10 02:26:05;;;;;;;5.45;2.60;;;-0.70;99.90;;;;;;5091402;28;20052;-60
2021/12/10 02:28:33;;;;;;;4.40;2.25;;;-0.60;99.90;;;;;;5091692;28;20415;-60
2021/12/10 02:31:01;;;;;;;5.70;1.98;;;-0.60;99.90;;;;;;5091943;28;20043;-60
2021/12/10 02:33:28;;;;;;;5.30;1.73;;;-0.70;99.90;;;;;;5091645;28;20109;-60
2021/12/10 02:35:56;;;;;;;6.38;1.48;;;-0.80;99.90;;;;;;5090972;28;20047;-60
2021/12/10 02:38:23;;;;;;;5.70;1.77;;;-0.80;99.90;;;;;;5091664;28;20566;-60
2021/12/10 02:40:53;;;;;;;5.22;1.48;;;-0.80;99.90;;;;;;5091637;28;20113;-60
2021/12/10 02:43:22;;;;;;;5.55;1.42;;;-0.80;99.90;;;;;;5091446;28;20416;-60
2021/12/10 02:45:55;;;;;;;3.30;1.27;;;-1.00;99.90;;;;;;5090866;28;20047;-60
2021/12/10 02:48:23;;;;;;;2.67;1.00;;;-1.00;99.90;;;;;;5091621;28;20076;-60
2021/12/10 02:50:51;;;;;;;4.68;1.60;;;-1.10;99.90;;;;;;5091543;28;20061;-60
2021/12/10 02:53:23;;;;;;;3.72;1.20;;;-1.20;99.90;;;;;;5091384;28;20097;-59
2021/12/10 02:55:50;;;;;;;3.03;1.30;;;-1.20;99.90;;;;;;5091034;28;20044;-60
2021/12/10 02:58:17;;;;;;;2.40;1.17;;;-1.20;99.90;;;;;;5091620;28;20036;-60
2021/12/10 03:00:56;;;;;;;3.80;1.63;;;-1.20;99.90;;;;;;5091422;28;20494;-59
2021/12/10 03:03:24;;;;;;;2.78;1.33;;;-1.20;99.90;;;;;;5091385;28;20067;-59
2021/12/10 03:05:51;;;;;;;6.03;1.15;;;-1.30;99.90;;;;;;5091072;28;20093;-59
2021/12/10 03:08:18;;;;;;;;;;;-1.30;99.90;;;;;;5093977;28;20079;-59
2021/12/10 03:10:45;;;;;;;3.40;0.80;;;-1.30;99.90;;;;;;5095201;28;19970;-59
2021/12/10 03:13:13;;;;;;;4.03;1.17;;;-1.30;99.90;;;;;;5095363;28;20086;-59
2021/12/10 03:15:40;;;;;;;3.80;1.10;;;-1.40;99.90;;;;;;5094577;28;20040;-60
2021/12/10 03:18:09;;;;;;;3.13;1.30;;;-1.40;99.90;;;;;;5095320;28;20040;-59
2021/12/10 03:20:37;;;;;;;3.03;1.10;;;-1.40;99.90;;;;;;5095208;28;20043;-59
2021/12/10 03:23:05;;;;;;;5.10;1.30;;;-1.50;99.90;;;;;;5095007;28;20109;-59
2021/12/10 03:25:32;;;;;;;3.38;1.20;;;-1.40;99.90;;;;;;5094481;28;20040;-59
2021/12/10 03:28:00;;;;;;;2.92;0.88;;;-1.40;99.90;;;;;;5095209;28;20105;-59
2021/12/10 03:30:36;;;;;;;3.75;0.90;;;-1.50;99.90;;;;;;5094984;28;20123;-59
2021/12/10 03:33:04;;;;;;;1.90;0.60;;;-1.50;99.90;;;;;;5094962;28;20048;-59
2021/12/10 03:35:40;;;;;;;5.05;0.70;;;-1.60;99.90;;;;;;5094186;28;20523;-59
2021/12/10 03:38:10;;;;;;;1.55;0.82;;;-1.70;99.90;;;;;;5094787;28;20094;-59
2021/12/10 03:40:37;;;;;;;2.22;0.88;;;-1.70;99.90;;;;;;5094812;28;20051;-59
2021/12/10 03:43:05;;;;;;;;;;;-1.70;99.90;;;;;;5095183;28;20089;-59
2021/12/10 03:45:37;;;;;;;2.00;0.77;;;-1.70;99.90;;;;;;5094142;28;19927;-59
2021/12/10 03:48:09;;;;;;;2.67;0.85;;;-1.70;99.90;;;;;;5094661;28;20474;-59
2021/12/10 03:50:37;;;;;;;5.13;1.13;;;-1.80;99.90;;;;;;5094693;28;20044;-59
2021/12/10 03:53:04;;;;;;;3.95;1.55;;;-1.80;99.90;;;;;;5094560;28;20105;-59
2021/12/10 03:55:32;;;;;;;6.65;2.17;;;-1.80;99.90;;;;;;5093891;28;20040;-59
2021/12/10 03:57:59;;;;;;;2.85;0.82;;;-1.70;99.90;;;;;;5094323;28;20059;-59
2021/12/10 04:00:31;;;;;;;2.22;1.20;;;-1.80;99.90;;;;;;5094390;28;20085;-59
2021/12/10 04:02:59;;;;;;;6.30;1.60;;;-1.90;99.90;;;;;;5094230;28;20834;-59
2021/12/10 04:05:26;;;;;;;2.20;1.10;;;-2.00;99.90;;;;;;5094004;28;20048;-59
2021/12/10 04:07:54;;;;;;;3.78;1.60;;;-2.00;99.90;;;;;;5094273;28;20052;-59
2021/12/10 04:10:23;;;;;;;2.63;1.35;;;-2.00;99.90;;;;;;5094119;28;20040;-59
2021/12/10 04:12:50;;;;;;;2.60;1.40;;;-2.10;99.90;;;;;;5094290;28;20044;-59
2021/12/10 04:15:22;;;;;;;2.63;1.23;;;-2.20;99.90;;;;;;5093946;28;20043;-59
2021/12/10 04:17:52;;;;;;;2.83;1.00;;;-2.20;99.90;;;;;;5093943;28;20048;-59
2021/12/10 04:20:22;;;;;;;2.10;0.90;;;-2.30;99.90;;;;;;5094112;28;20050;-59
2021/12/10 04:22:50;;;;;;;2.78;0.73;;;-2.30;99.90;;;;;;5094052;28;20094;-59
2021/12/10 04:25:20;;;;;;;3.80;0.80;;;-2.30;99.90;;;;;;5093365;28;20078;-59
2021/12/10 04:27:49;;;;;;;4.20;1.17;;;-2.30;99.90;;;;;;5093777;28;20032;-59
2021/12/10 04:30:16;;;;;;;5.03;2.60;;;-2.40;99.90;;;;;;5093607;28;20044;-59
2021/12/10 04:32:44;;;;;;;2.25;1.08;;;-2.30;99.90;;;;;;5093912;28;20047;-59
2021/12/10 04:35:13;;;;;;;2.47;1.33;;;-2.30;99.90;;;;;;5093364;28;20036;-59
2021/12/10 04:37:40;;;;;;;3.20;1.67;;;-2.20;99.90;;;;;;5093802;28;20047;-59
2021/12/10 04:40:10;;;;;;;6.15;1.67;;;-2.20;99.90;;;;;;5093494;28;20500;-59
2021/12/10 04:42:37;;;;;;;4.80;1.60;;;-2.30;99.90;;;;;;5093293;28;20415;-59
2021/12/10 04:45:06;;;;;;;2.78;1.30;;;-2.30;99.90;;;;;;5093235;28;20488;-59
2021/12/10 04:47:34;;;;;;;4.15;1.98;;;-2.30;99.90;;;;;;5093270;28;20132;-59
2021/12/10 04:50:04;;;;;;;4.63;2.10;;;-2.30;99.90;;;;;;5093591;28;20055;-59
2021/12/10 04:52:34;;;;;;;4.95;1.73;;;-2.30;99.90;;;;;;5093331;28;20046;-59
2021/12/10 04:55:06;;;;;;;5.50;2.05;;;-2.20;99.90;;;;;;5093104;28;20065;-59
2021/12/10 04:57:33;;;;;;;2.75;1.70;;;-2.20;99.90;;;;;;5093131;28;20074;-59
2021/12/10 05:00:01;;;;;;;5.65;2.08;;;-2.20;99.90;;;;;;5093308;28;20044;-60
2021/12/10 05:02:29;;;;;;;4.65;2.10;;;-2.20;99.90;;;;;;5093275;28;20074;-59
2021/12/10 05:05:01;;;;;;;5.85;2.05;;;-2.30;99.90;;;;;;5092903;28;20044;-59
2021/12/10 05:07:31;;;;;;;6.00;2.08;;;-2.30;99.90;;;;;;5092583;28;20140;-59
2021/12/10 05:09:58;;;;;;;6.50;2.58;;;-2.40;99.90;;;;;;5092924;28;20052;-59
2021/12/10 05:12:25;;;;;;;4.85;2.42;;;-2.40;99.90;;;;;;5093145;28;20420;-59
2021/12/10 05:14:58;;;;;;;7.05;3.00;;;-2.40;99.90;;;;;;5092931;28;20040;-59
2021/12/10 05:17:28;;;;;;;5.32;2.90;;;-2.30;99.90;;;;;;5092447;28;20547;-59
2021/12/10 05:19:55;;;;;;;5.82;3.00;;;-2.40;99.90;;;;;;5092814;28;20043;-59
2021/12/10 05:22:22;;;;;;;7.82;2.90;;;-2.40;99.90;;;;;;5093000;28;20071;-59
2021/12/10 05:24:49;;;;;;;4.40;2.33;;;-2.50;99.90;;;;;;5092625;28;20113;-59
2021/12/10 05:27:16;;;;;;;12.05;3.58;;;-2.60;99.90;;;;;;5092361;28;20128;-59
2021/12/10 05:29:43;;;;;;;8.85;3.40;;;-2.60;99.90;;;;;;5092363;28;20212;-59
2021/12/10 05:32:11;;;;;;;3.40;1.77;;;-2.60;99.90;;;;;;5092584;28;20051;-59
2021/12/10 05:34:40;;;;;;;5.43;2.10;;;-2.80;99.90;;;;;;5092573;28;20101;-59
2021/12/10 05:37:08;;;;;;;10.63;3.33;;;-2.90;99.90;;;;;;5092205;28;20048;-59
2021/12/10 05:39:35;;;;;;;7.68;3.20;;;-3.00;99.90;;;;;;5092457;28;20048;-59
2021/12/10 05:42:04;;;;;;;6.35;2.90;;;-3.00;99.90;;;;;;5092288;28;20048;-59
2021/12/10 05:44:31;;;;;;;4.75;2.42;;;-2.90;99.90;;;;;;5092467;28;20047;-59
2021/12/10 05:46:59;;;;;;;;;;;-2.90;99.90;;;;;;5121576;22;20071;-60
2021/12/10 05:49:27;;;;;;;3.42;1.50;;;-3.10;99.90;;;;;;5106358;28;19924;-60
2021/12/10 05:51:54;;;;;;;4.30;2.03;;;-3.20;99.90;;;;;;5098828;28;20555;-60
2021/12/10 05:54:21;;;;;;;6.88;2.00;;;-3.20;99.90;;;;;;5092007;28;20407;-60
2021/12/10 05:56:48;;;;;;;9.25;3.47;;;-3.30;99.90;;;;;;5091026;28;20105;-60
2021/12/10 05:59:15;;;;;;;7.15;3.20;;;-3.10;99.90;;;;;;5092119;28;20102;-60
2021/12/10 06:01:44;;;;;;;6.63;3.53;;;-3.10;99.90;;;;;;5073793;28;20048;-59
2021/12/10 06:04:10;;;;;;;8.73;3.75;;;-3.10;99.90;;;;;;5091839;28;20051;-60
2021/12/10 06:06:37;;;;;;;11.65;4.70;;;-3.10;99.90;;;;;;5091126;28;20120;-60
2021/12/10 06:09:08;;;;;;;9.85;4.28;;;-3.10;99.90;;;;;;5091906;28;20074;-60
2021/12/10 06:11:36;;;;;;;8.88;4.25;;;-2.90;99.90;;;;;;5091704;28;20043;-60
2021/12/10 06:14:03;;;;;;;9.85;4.03;;;-2.90;99.90;;;;;;5091773;28;20467;-59
2021/12/10 06:16:31;;;;;;;7.70;3.78;;;-2.80;99.90;;;;;;5091830;28;20043;-59
2021/12/10 06:18:58;;;;;;;3.70;2.35;;;-2.80;99.90;;;;;;5091894;28;20052;-59
2021/12/10 06:21:25;;;;;;;6.93;3.72;;;-2.70;99.90;;;;;;5091675;28;20064;-59
2021/12/10 06:23:52;;;;;;;6.72;3.22;;;-2.70;99.90;;;;;;5091790;28;20036;-59
2021/12/10 06:26:19;;;;;;;7.38;3.25;;;-2.60;99.90;;;;;;5091155;28;20492;-59
2021/12/10 06:28:46;;;;;;;6.93;3.28;;;-2.50;99.90;;;;;;5091681;28;20044;-59
2021/12/10 06:31:18;;;;;;;8.02;3.58;;;-2.60;99.90;;;;;;5091612;28;20048;-60
2021/12/10 06:33:46;;;;;;;9.70;3.53;;;-2.60;99.90;;;;;;5091733;28;20044;-59
2021/12/10 06:36:15;;;;;;;8.80;4.07;;;-2.60;99.90;;;;;;5091091;28;20048;-59
2021/12/10 06:38:42;;;;;;;10.88;4.50;;;-2.60;99.90;;;;;;5091610;28;20040;-59
2021/12/10 06:41:11;;;;;;;16.00;4.72;;;-2.60;99.90;;;;;;5091317;28;20048;-59
2021/12/10 06:43:37;;;;;;;7.80;3.42;;;-2.60;99.90;;;;;;5094428;28;20520;-59
2021/12/10 06:46:06;;;;;;;11.63;5.07;;;-2.60;99.90;;;;;;5095207;28;20048;-59
2021/12/10 06:48:34;;;;;;;8.85;4.22;;;-2.60;99.90;;;;;;5077753;28;20054;-59
2021/12/10 06:51:09;;;;;;;13.02;4.60;;;-2.60;99.90;;;;;;5095801;28;20032;-59
2021/12/10 06:53:39;;;;;;;8.55;4.35;;;-2.60;99.90;;;;;;5095426;28;20044;-59
2021/12/10 06:56:07;;;;;;;6.25;3.22;;;-2.70;99.90;;;;;;5094627;28;20040;-59
2021/12/10 06:58:35;;;;;;;6.03;3.35;;;-2.70;99.90;;;;;;5095146;28;20040;-59
2021/12/10 07:01:06;;;;;;;7.88;3.45;;;-2.70;99.90;;;;;;5098091;28;20050;-60
2021/12/10 07:03:35;;;;;;;10.52;4.20;;;-2.70;99.90;;;;;;5100956;28;20070;-60
2021/12/10 07:06:04;;;;;;;7.82;3.75;;;-2.80;99.90;;;;;;5095182;28;20093;-59
2021/12/10 07:08:34;;;;;;;8.88;4.18;;;-2.80;99.90;;;;;;5104385;28;20071;-61
2021/12/10 07:11:02;;;;;;;10.25;4.70;;;-2.90;99.90;;;;;;5115809;28;20089;-61
2021/12/10 07:13:32;;;;;;;14.20;5.03;;;-2.80;99.90;;;;;;5115551;28;20063;-61
2021/12/10 07:16:00;;;;;;;7.72;3.92;;;-2.80;99.90;;;;;;5109522;28;20040;-61
2021/12/10 07:18:27;;;;;;;8.85;3.80;;;-2.80;99.90;;;;;;5095209;28;20040;-59
2021/12/10 07:20:54;;;;;;;10.75;4.13;;;-2.80;99.90;;;;;;5097656;28;20039;-61
2021/12/10 07:23:22;;;;;;;14.00;4.50;;;-2.90;99.90;;;;;;5094883;28;20095;-59
2021/12/10 07:25:50;;;;;;;7.30;4.10;;;-2.90;99.90;;;;;;5094613;28;20089;-61
2021/12/10 07:28:18;;;;;;;10.73;4.25;;;-2.90;99.90;;;;;;5094893;28;20063;-59
2021/12/10 07:30:47;;;;;;;6.70;3.55;;;-2.90;99.90;;;;;;5097397;28;20040;-60
2021/12/10 07:33:16;;;;;;;8.63;4.30;;;-2.80;99.90;;;;;;5094982;28;20063;-59
2021/12/10 07:35:45;;;;;;;10.35;4.10;;;-2.80;99.90;;;;;;5094288;28;20419;-60
2021/12/10 07:38:12;;;;;;;8.40;3.80;;;-2.70;99.90;;;;;;5094762;28;20076;-59
2021/12/10 07:40:40;;;;;;;8.80;3.70;;;-2.70;99.90;;;;;;5076444;28;20044;-61
2021/12/10 07:43:08;;;;;;;9.48;4.10;;;-2.70;99.90;;;;;;5097422;28;20047;-61
2021/12/10 07:45:36;;;;;;;10.27;5.10;;;-2.70;99.90;;;;;;5094092;28;20561;-60
2021/12/10 07:48:08;;;;;;;9.02;4.07;;;-2.80;99.90;;;;;;5094507;28;20086;-61
2021/12/10 07:50:41;;;;;;;7.63;3.78;;;-2.70;99.90;;;;;;5094614;28;20097;-61
2021/12/10 07:53:09;;;;;;;16.17;5.60;;;-2.70;99.90;;;;;;5096618;28;20135;-61
2021/12/10 07:55:38;;;;;;;11.88;4.82;;;-2.70;99.90;;;;;;5094048;28;20067;-61
2021/12/10 07:58:07;;;;;;;9.40;4.47;;;-2.60;99.90;;;;;;5094532;28;20377;-61
2021/12/10 08:00:40;;;;;;;11.02;4.45;;;-2.70;99.90;;;;;;5094082;28;20068;-60
2021/12/10 08:03:08;;;;;;;9.57;3.85;;;-2.70;99.90;;;;;;5094107;28;20044;-61
2021/12/10 08:05:37;;;;;;;7.65;4.10;;;-2.60;99.90;;;;;;5093812;28;20457;-61
2021/12/10 08:08:06;;;;;;;10.07;4.03;;;-2.60;99.90;;;;;;5094191;28;20226;-61
2021/12/10 08:10:34;;;;;;;9.55;4.18;;;-2.70;99.90;;;;;;5096535;28;20064;-61
2021/12/10 08:13:02;;;;;;;7.18;3.60;;;-2.70;99.90;;;;;;5096508;28;20036;-60
2021/12/10 08:15:29;;;;;;;11.80;4.13;;;-2.70;99.90;;;;;;5093704;28;20056;-60
2021/12/10 08:17:56;;;;;;;7.53;3.55;;;-2.70;99.90;;;;;;5093848;28;20562;-61
2021/12/10 08:20:25;;;;;;;7.28;3.17;;;-2.70;99.90;;;;;;5093998;28;20086;-61
2021/12/10 08:22:53;;;;;;;7.75;3.40;;;-2.70;99.90;;;;;;5093741;28;20036;-61
2021/12/10 08:25:22;;;;;;;10.18;4.00;;;-2.70;99.90;;;;;;5093262;28;20051;-61
2021/12/10 08:27:50;;;;;;;8.30;4.18;;;-2.70;99.90;;;;;;5093719;28;20462;-61
2021/12/10 08:30:20;;;;;;;11.77;4.82;;;-2.60;99.90;;;;;;5093972;28;20070;-61
2021/12/10 08:32:48;;;;;;;5.93;3.58;;;-2.60;99.90;;;;;;5093751;28;20044;-61
2021/12/10 08:35:19;;;;;;;11.18;3.80;;;-2.50;99.90;;;;;;5093185;28;20062;-60
2021/12/10 08:37:47;;;;;;;11.38;4.63;;;-2.40;99.90;;;;;;5093705;28;20048;-61
2021/12/10 08:40:22;;;;;;;9.90;4.10;;;-2.30;99.90;;;;;;5093379;28;20554;-61
2021/12/10 08:42:50;;;;;;;7.18;4.15;;;-2.20;99.90;;;;;;5093626;28;20044;-61
2021/12/10 08:45:19;;;;;;;8.15;3.88;;;-2.10;99.90;;;;;;5093006;28;20127;-61
2021/12/10 08:47:48;;;;;;;8.88;3.67;;;-2.00;99.90;;;;;;5093448;28;20040;-61
2021/12/10 08:50:18;;;;;;;15.57;4.22;;;-2.00;99.90;;;;;;5093166;28;20123;-61
2021/12/10 08:52:45;;;;;;;9.18;3.10;;;-1.90;99.90;;;;;;5093279;28;20036;-61
2021/12/10 08:55:12;;;;;;;12.15;3.25;;;-2.00;99.90;;;;;;5093011;28;20047;-60
2021/12/10 08:57:39;;;;;;;8.75;4.38;;;-2.00;99.90;;;;;;5093166;28;20105;-61
2021/12/10 09:00:08;;;;;;;9.00;4.18;;;-1.90;99.90;;;;;;5093629;28;20048;-61
2021/12/10 09:02:37;;;;;;;5.75;2.85;;;-1.80;99.90;;;;;;5113557;28;20039;-61
2021/12/10 09:05:09;;;;;;;4.55;2.72;;;-1.70;99.90;;;;;;5112296;28;20066;-61
2021/12/10 09:07:38;;;;;;;7.57;3.47;;;-1.70;99.90;;;;;;5113322;28;20540;-61
2021/12/10 09:10:08;;;;;;;9.13;3.15;;;-1.60;99.90;;;;;;5113513;28;20118;-61
2021/12/10 09:12:37;;;;;;;7.53;3.30;;;-1.50;99.90;;;;;;5113361;28;20092;-61
2021/12/10 09:15:07;;;;;;;9.05;3.30;;;-1.50;99.90;;;;;;5113378;28;20658;-61
2021/12/10 09:17:38;;;;;;;6.57;3.53;;;-1.50;99.90;;;;;;5112916;28;20043;-61
2021/12/10 09:20:15;;;;;;;5.40;2.95;;;-1.50;99.90;;;;;;5113356;28;20122;-61
2021/12/10 09:22:43;;;;;;;6.97;3.17;;;-1.50;99.90;;;;;;5095187;28;20439;-61
2021/12/10 09:25:11;;;;;;;9.20;2.75;;;-1.60;99.90;;;;;;5112871;28;20096;-61
2021/12/10 09:27:38;;;;;;;8.00;3.45;;;-1.60;99.90;;;;;;5112868;28;20069;-61
2021/12/10 09:30:07;;;;;;;7.57;3.78;;;-1.60;99.90;;;;;;5112807;28;20066;-61
2021/12/10 09:32:35;;;;;;;8.90;3.70;;;-1.60;99.90;;;;;;5112939;28;20047;-61
2021/12/10 09:35:06;;;;;;;8.68;3.65;;;-1.60;99.90;;;;;;5112927;28;20495;-61
2021/12/10 09:37:35;;;;;;;7.22;3.70;;;-1.70;99.90;;;;;;5112690;28;20817;-61
2021/12/10 09:40:10;;;;;;;9.30;3.38;;;-1.70;99.90;;;;;;5094539;28;20044;-61
2021/12/10 09:42:37;;;;;;;6.07;3.30;;;-1.80;99.90;;;;;;5112498;28;20479;-61
2021/12/10 09:45:07;;;;;;;7.22;2.55;;;-1.80;99.90;;;;;;5112561;28;20452;-61
2021/12/10 09:47:34;;;;;;;6.07;2.95;;;-1.80;99.90;;;;;;5112474;28;20172;-61
2021/12/10 09:50:04;;;;;;;7.03;3.53;;;-1.80;99.90;;;;;;5112297;28;20070;-61
2021/12/10 09:52:31;;;;;;;8.40;3.30;;;-1.60;99.90;;;;;;5112558;28;20044;-61
2021/12/10 09:54:58;;;;;;;6.32;2.95;;;-1.50;99.90;;;;;;5112638;28;20085;-61
2021/12/10 09:57:29;;;;;;;11.77;3.08;;;-1.30;99.90;;;;;;5112082;28;20078;-61
2021/12/10 10:00:28;;;;;;;6.95;2.88;;;-1.30;99.90;;;;;;5112676;28;20543;-61
2021/12/10 10:02:56;;;;;;;4.60;2.58;;;-1.40;99.90;;;;;;5112377;28;20135;-61
2021/12/10 10:05:26;;;;;;;5.88;2.92;;;-1.40;99.90;;;;;;5112026;28;20342;-61
2021/12/10 10:16:57;;;;;;;6.28;2.63;;;-1.20;99.90;;;;;;4960211;28;20095;-59
2021/12/10 10:20:58;;;;;;;6.85;3.00;;;-1.20;99.90;;;;;;4973206;28;20392;-59
2021/12/10 10:25:03;;;;;;;6.00;2.67;;;-1.20;99.90;;;;;;4951040;29;20412;-59
2021/12/10 10:28:24;;;;;;;3.85;2.22;;;-1.00;99.90;;;;;;4938825;29;20056;-59
2021/12/10 10:31:05;;;;;;;5.93;2.65;;;-0.80;99.90;;;;;;4943555;28;20063;-61
2021/12/10 10:33:37;;;;;;;6.15;2.70;;;-0.60;99.90;;;;;;5012213;28;20063;-61
2021/12/10 10:36:11;;;;;;;5.68;2.33;;;-0.50;99.90;;;;;;5091321;28;20577;-61
2021/12/10 10:38:38;;;;;;;5.45;2.55;;;-0.40;99.90;;;;;;5091737;28;20450;-61
2021/12/10 10:41:10;;;;;;;6.53;2.90;;;-0.20;99.90;;;;;;5091438;28;20044;-61
2021/12/10 10:43:37;;;;;;;4.97;2.70;;;0.70;99.90;;;;;;5091705;28;20097;-61
2021/12/10 10:46:05;;;;;;;4.88;2.25;;;0.00;99.90;;;;;;5090913;28;20131;-61
2021/12/10 10:48:32;;;;;;;3.72;2.50;;;0.00;99.90;;;;;;5091646;28;20123;-61
2021/12/10 10:51:07;;;;;;;3.85;1.83;;;0.10;99.90;;;;;;5091582;28;20062;-61
2021/12/10 10:53:41;;;;;;;4.00;2.40;;;0.10;99.90;;;;;;5091377;28;20388;-61
2021/12/10 10:56:15;;;;;;;6.63;2.25;;;0.10;99.90;;;;;;5091009;28;20059;-61
2021/12/10 10:58:54;;;;;;;3.17;1.65;;;0.10;99.90;;;;;;5091472;28;20056;-61
2021/12/10 11:01:40;;;;;;;4.68;1.45;;;0.10;99.90;;;;;;5091479;28;20101;-61
2021/12/10 11:04:36;;;;;;;5.00;1.95;;;0.20;99.90;;;;;;5091341;28;20047;-61
2021/12/10 11:07:15;;;;;;;2.95;1.92;;;0.50;99.90;;;;;;5072915;28;20048;-61
2021/12/10 11:09:52;;;;;;;5.53;2.35;;;0.70;99.90;;;;;;5093242;28;20466;-61
2021/12/10 11:12:29;;;;;;;5.60;2.90;;;0.70;99.90;;;;;;5099319;28;20094;-61
2021/12/10 11:14:58;;;;;;;8.02;2.65;;;0.60;99.90;;;;;;5091368;28;20450;-61
2021/12/10 11:17:35;;;;;;;6.03;3.15;;;0.40;99.90;;;;;;5098564;28;20035;-61
2021/12/10 11:20:19;;;;;;;10.43;3.83;;;0.20;99.90;;;;;;5101932;28;20411;-61
2021/12/10 11:22:48;;;;;;;6.55;3.60;;;0.30;99.90;;;;;;5103357;28;20040;-61
2021/12/10 11:25:20;;;;;;;7.35;3.50;;;0.40;99.90;;;;;;5090680;28;20082;-61
2021/12/10 11:27:47;;;;;;;7.93;2.78;;;0.60;99.90;;;;;;5091305;28;20048;-61
2021/12/10 11:30:19;;;;;;;7.10;2.85;;;0.90;99.90;;;;;;5094679;28;20118;-61
2021/12/10 11:33:12;;;;;;;4.72;2.35;;;1.10;99.90;;;;;;5094967;28;20044;-61
2021/12/10 11:35:48;;;;;;;5.53;2.72;;;1.10;99.90;;;;;;5094272;28;20044;-59
2021/12/10 11:38:17;;;;;;;4.13;1.95;;;0.90;99.90;;;;;;5094899;28;20536;-59
2021/12/10 11:40:49;;;;;;;3.10;2.45;;;0.70;99.90;;;;;;5094797;28;20081;-59
2021/12/10 11:48:55;;;;;;;9.68;1.90;;;0.50;99.90;;;;;;5104247;28;20492;-56
2021/12/10 11:51:29;;;;;;;3.47;2.05;;;0.50;99.90;;;;;;5087135;22;20102;-58
2021/12/10 11:54:02;;;;;;;4.82;2.45;;;0.40;99.90;;;;;;5055659;28;20045;-58
2021/12/10 11:56:36;;;;;;;7.68;2.25;;;0.40;99.90;;;;;;5073127;28;20484;-58
2021/12/10 11:59:11;;;;;;;6.20;2.20;;;0.40;99.90;;;;;;5072785;28;20033;-58
2021/12/10 12:02:11;;;;;;;5.35;1.95;;;0.50;99.90;;;;;;5071595;28;20032;-60
2021/12/10 12:04:50;;;;;;;3.47;2.40;;;0.60;99.90;;;;;;5071845;28;20052;-58
2021/12/10 12:07:19;;;;;;;5.00;2.60;;;0.60;99.90;;;;;;5070318;28;20048;-58
2021/12/10 12:09:51;;;;;;;12.35;3.38;;;0.60;99.90;;;;;;5073226;28;20048;-58
2021/12/10 12:12:38;;;;;;;10.27;3.35;;;0.50;99.90;;;;;;5071282;28;20051;-58
2021/12/10 12:15:19;;;;;;;7.82;2.80;;;0.50;99.90;;;;;;5073244;28;20362;-59
2021/12/10 12:17:58;;;;;;;4.72;2.00;;;0.50;99.90;;;;;;5073025;28;20032;-59
2021/12/10 12:20:34;;;;;;;4.40;1.63;;;0.60;99.90;;;;;;5072089;28;20040;-58
2021/12/10 12:26:07;;;;;;;4.55;2.03;;;0.50;99.90;;;;;;5072620;28;20390;-58
2021/12/10 12:29:02;;;;;;;5.85;2.30;;;0.50;99.90;;;;;;5072067;28;20072;-59
2021/12/10 12:31:48;;;;;;;4.50;2.13;;;0.50;99.90;;;;;;5070698;28;20051;-59
2021/12/10 12:34:17;;;;;;;3.10;2.15;;;0.50;99.90;;;;;;5072784;28;20040;-59
2021/12/10 12:36:50;;;;;;;4.30;2.20;;;0.70;99.90;;;;;;5072425;28;20068;-58
2021/12/10 12:39:36;;;;;;;8.18;2.90;;;0.70;99.90;;;;;;5069358;28;20040;-60
2021/12/10 12:42:08;;;;;;;9.55;3.88;;;0.70;99.90;;;;;;5072248;28;20094;-59
2021/12/10 12:44:40;;;;;;;6.82;3.58;;;0.70;99.90;;;;;;5072610;28;20094;-60
2021/12/10 12:47:31;;;;;;;10.15;3.78;;;0.50;99.90;;;;;;5070795;28;20068;-59
2021/12/10 12:50:20;;;;;;;7.03;3.63;;;0.40;99.90;;;;;;5072183;28;20044;-60
2021/12/10 12:52:54;;;;;;;8.63;2.67;;;0.40;99.90;;;;;;5072583;28;20033;-59
2021/12/10 12:55:57;;;;;;;11.73;4.38;;;0.50;99.90;;;;;;5069961;28;20068;-59
2021/12/10 12:58:43;;;;;;;9.63;4.20;;;0.40;99.90;;;;;;5071709;28;20033;-60
2021/12/10 13:01:34;;;;;;;8.23;3.80;;;0.40;99.90;;;;;;5071721;28;20453;-59
2021/12/10 13:04:14;;;;;;;7.07;2.20;;;0.50;99.90;;;;;;5072177;28;20060;-58
2021/12/10 13:07:11;;;;;;;3.45;1.60;;;0.60;99.90;;;;;;5070016;28;20111;-58
2021/12/10 13:09:49;;;;;;;4.15;1.50;;;0.70;99.90;;;;;;5072123;28;20044;-60
2021/12/10 13:12:40;;;;;;;;;;;0.90;99.90;;;;;;5072341;28;20060;-59
2021/12/10 13:15:12;;;;;;;5.97;2.67;;;0.90;99.90;;;;;;5071739;28;19932;-58
2021/12/10 13:17:46;;;;;;;11.00;4.07;;;0.80;99.90;;;;;;5072215;28;20032;-60
2021/12/10 13:20:20;;;;;;;7.28;3.42;;;0.70;99.90;;;;;;5071258;28;20386;-59
2021/12/10 13:22:51;;;;;;;6.63;3.42;;;0.50;99.90;;;;;;5071970;28;20043;-59
2021/12/10 13:25:24;;;;;;;5.95;3.17;;;0.50;99.90;;;;;;5068687;28;20094;-60
2021/12/10 13:27:51;;;;;;;7.70;3.95;;;0.50;99.90;;;;;;5071790;28;20032;-59
2021/12/10 13:30:22;;;;;;;11.70;4.18;;;0.50;99.90;;;;;;5068994;28;20048;-59
2021/12/10 13:32:51;;;;;;;11.13;4.63;;;0.60;99.90;;;;;;5071792;28;20040;-59
2021/12/10 13:35:21;;;;;;;9.50;3.95;;;0.60;99.90;;;;;;5068379;28;20045;-59
2021/12/10 13:37:51;;;;;;;8.13;4.28;;;0.70;99.90;;;;;;5071507;28;20590;-59
2021/12/10 13:40:18;;;;;;;7.85;3.88;;;0.70;99.90;;;;;;5068708;28;20036;-59
2021/12/10 13:42:46;;;;;;;6.32;2.78;;;0.70;99.90;;;;;;5071559;28;20035;-59